Time;durP1;ratioP1;P1;durP2;ratioP2;P2;SDS_P1;SDS_P2;PMS_P1;PMS_P2;Temp;Humidity;BMP_temperature;BMP_pressure;BME280_temperature;BME280_humidity;BME280_pressure;Samples;Min_cycle;Max_cycle;Signal;HPM_P1;HPM_P2
2022/07/12 00:01:06;;;;;;;3.03;1.70;;;;;;;20.86;41.76;100149.78;5103404;28;20426;-67
2022/07/12 00:03:33;;;;;;;4.63;1.40;;;;;;;20.43;41.22;100138.06;5104856;28;20024;-70
2022/07/12 00:05:59;;;;;;;3.67;1.38;;;;;;;20.55;40.54;100139.84;5106751;28;20104;-69
2022/07/12 00:08:24;;;;;;;2.47;1.50;;;;;;;20.51;41.19;100138.63;5102105;28;20400;-67
2022/07/12 00:10:50;;;;;;;2.58;1.48;;;;;;;20.40;41.21;100140.16;5104825;28;20291;-67
2022/07/12 00:13:16;;;;;;;1.83;1.27;;;;;;;20.48;41.04;100140.94;5103097;28;20035;-67
2022/07/12 00:15:43;;;;;;;1.67;1.42;;;;;;;20.52;40.95;100142.97;5105247;28;21203;-67
2022/07/12 00:18:09;;;;;;;2.67;1.30;;;;;;;20.67;40.80;100148.88;5102199;28;20028;-67
2022/07/12 00:20:35;;;;;;;3.70;1.52;;;;;;;20.42;40.93;100142.63;5102853;28;20063;-69
2022/07/12 00:23:01;;;;;;;2.03;1.40;;;;;;;20.27;41.42;100148.28;5103705;28;20078;-69
2022/07/12 00:25:26;;;;;;;4.10;1.35;;;;;;;20.33;41.28;100149.28;5104742;28;20069;-69
2022/07/12 00:27:52;;;;;;;2.72;1.60;;;;;;;20.32;41.28;100153.00;5103353;28;20036;-69
2022/07/12 00:30:18;;;;;;;2.53;1.38;;;;;;;20.15;41.45;100154.53;5102882;28;20032;-69
2022/07/12 00:32:44;;;;;;;4.07;1.40;;;;;;;20.26;41.35;100160.06;5105764;28;20057;-67
2022/07/12 00:35:10;;;;;;;4.68;1.38;;;;;;;20.18;41.44;100156.81;5103167;28;20048;-70
2022/07/12 00:37:36;;;;;;;4.05;1.40;;;;;;;20.31;41.15;100151.34;5102624;28;20054;-67
2022/07/12 00:40:05;;;;;;;3.05;1.40;;;;;;;20.20;41.20;100160.91;5104311;28;20040;-69
2022/07/12 00:42:32;;;;;;;5.07;1.42;;;;;;;20.14;41.35;100156.41;5105582;28;20103;-69
2022/07/12 00:44:58;;;;;;;2.42;1.77;;;;;;;20.09;41.44;100167.81;5101678;28;20028;-67
2022/07/12 00:47:43;;;;;;;2.03;1.33;;;;;;;20.02;41.37;100160.81;5104169;28;20340;-67
2022/07/12 00:50:17;;;;;;;3.90;1.50;;;;;;;19.86;41.79;100162.09;5104262;28;20036;-67
2022/07/12 00:52:44;;;;;;;3.17;1.63;;;;;;;19.79;41.56;100131.75;5105423;28;20024;-67
2022/07/12 00:55:11;;;;;;;4.88;1.48;;;;;;;19.81;41.76;100137.72;5103845;28;20044;-68
2022/07/12 00:57:39;;;;;;;3.63;1.50;;;;;;;20.16;41.34;100164.25;5106637;28;20277;-67
2022/07/12 01:00:07;;;;;;;3.92;1.42;;;;;;;19.98;41.70;100160.41;5102524;28;20031;-67
2022/07/12 01:02:34;;;;;;;5.60;1.92;;;;;;;20.12;41.30;100163.84;5105782;28;20028;-67
2022/07/12 01:05:00;;;;;;;2.35;1.67;;;;;;;20.19;41.14;100166.50;5101194;28;20412;-67
2022/07/12 01:07:26;;;;;;;3.20;1.67;;;;;;;20.26;40.69;100168.13;5103480;28;20035;-68
2022/07/12 01:09:54;;;;;;;6.70;1.98;;;;;;;20.15;40.99;100176.88;5104079;28;20065;-67
2022/07/12 01:12:24;;;;;;;3.60;1.60;;;;;;;20.36;40.61;100167.66;5105761;28;20039;-67
2022/07/12 01:14:50;;;;;;;2.72;1.63;;;;;;;20.33;40.47;100160.84;5099995;28;20306;-67
2022/07/12 01:17:26;;;;;;;3.70;1.58;;;;;;;20.13;40.93;100168.19;5102739;28;20028;-67
2022/07/12 01:19:53;;;;;;;2.05;1.30;;;;;;;20.09;40.94;100165.13;5104659;28;20085;-69
2022/07/12 01:22:22;;;;;;;2.78;1.38;;;;;;;19.92;41.15;100163.94;5103032;28;20043;-67
2022/07/12 01:24:48;;;;;;;6.05;1.73;;;;;;;19.98;41.21;100154.19;5101402;28;20036;-67
2022/07/12 01:27:13;;;;;;;2.83;1.48;;;;;;;19.88;41.44;100157.34;5100898;28;20038;-67
2022/07/12 01:29:39;;;;;;;2.38;1.50;;;;;;;19.98;41.25;100159.59;5103295;28;20027;-67
2022/07/12 01:32:28;;;;;;;3.58;1.52;;;;;;;19.76;41.78;100157.16;5104886;28;20047;-69
2022/07/12 01:35:00;;;;;;;2.70;1.63;;;;;;;19.75;41.86;100154.66;5101566;28;20036;-70
2022/07/12 01:37:30;;;;;;;4.97;1.50;;;;;;;19.86;41.85;100151.34;5107430;28;20510;-68
2022/07/12 01:39:57;;;;;;;2.15;1.55;;;;;;;19.75;42.30;100147.44;5104351;28;20138;-67
2022/07/12 01:42:25;;;;;;;3.05;1.30;;;;;;;19.71;42.31;100150.75;5106206;28;20022;-67
2022/07/12 01:44:52;;;;;;;4.07;2.03;;;;;;;19.51;42.93;100152.63;5106804;28;20341;-67
2022/07/12 01:47:18;;;;;;;3.20;1.65;;;;;;;19.55;42.84;100149.34;5109920;28;20415;-69
2022/07/12 01:49:43;;;;;;;1.73;1.23;;;;;;;19.42;43.20;100141.28;5104381;28;20032;-69
2022/07/12 01:52:09;;;;;;;5.30;1.48;;;;;;;19.55;42.99;100152.03;5109551;28;20083;-69
2022/07/12 01:54:35;;;;;;;2.88;1.48;;;;;;;19.74;42.54;100153.84;5107547;28;20040;-67
2022/07/12 01:57:02;;;;;;;1.98;1.50;;;;;;;19.84;42.63;100160.66;5108963;28;20138;-70
2022/07/12 01:59:28;;;;;;;3.15;1.60;;;;;;;19.84;42.67;100155.28;5105289;28;20668;-67
2022/07/12 02:01:54;;;;;;;4.97;1.40;;;;;;;19.85;42.34;100157.78;5091648;28;20110;-67
2022/07/12 02:04:19;;;;;;;4.38;1.27;;;;;;;19.71;43.38;100151.59;5106699;28;20077;-69
2022/07/12 02:06:45;;;;;;;2.60;1.30;;;;;;;19.72;43.24;100160.47;5108288;28;20035;-69
2022/07/12 02:09:13;;;;;;;5.20;1.65;;;;;;;19.76;43.12;100154.47;5108225;28;20364;-69
2022/07/12 02:11:40;;;;;;;1.88;1.33;;;;;;;19.70;43.34;100165.22;5106858;28;20031;-67
2022/07/12 02:14:06;;;;;;;4.32;1.70;;;;;;;19.60;44.13;100162.16;5105842;28;20367;-67
2022/07/12 02:16:32;;;;;;;3.17;1.77;;;;;;;19.53;44.65;100159.47;5108496;28;20075;-69
2022/07/12 02:18:58;;;;;;;3.95;2.00;;;;;;;19.54;44.61;100163.81;5105108;28;20345;-69
2022/07/12 02:21:23;;;;;;;4.28;1.60;;;;;;;19.29;45.32;100157.44;5104021;28;20039;-69
2022/07/12 02:23:49;;;;;;;5.22;1.80;;;;;;;19.06;45.94;100155.19;5105845;28;20043;-69
2022/07/12 02:26:15;;;;;;;4.75;1.88;;;;;;;19.18;45.80;100164.25;5108847;28;20030;-67
2022/07/12 02:28:41;;;;;;;4.05;1.95;;;;;;;19.31;45.45;100166.94;5107718;28;20043;-67
2022/07/12 02:31:06;;;;;;;5.55;1.70;;;;;;;19.22;45.61;100167.34;5104754;28;20085;-67
2022/07/12 02:33:31;;;;;;;6.07;1.85;;;;;;;19.20;45.52;100161.38;5105712;28;20032;-69
2022/07/12 02:35:57;;;;;;;6.15;2.00;;;;;;;19.46;44.63;100172.91;5107187;28;20059;-69
2022/07/12 02:38:22;;;;;;;4.50;2.10;;;;;;;19.35;45.09;100172.72;5107832;28;20024;-69
2022/07/12 02:40:54;;;;;;;6.95;1.75;;;;;;;19.43;44.62;100172.50;5106459;28;20032;-70
2022/07/12 02:43:23;;;;;;;6.65;2.13;;;;;;;19.37;44.48;100171.47;5105840;28;20032;-67
2022/07/12 02:45:50;;;;;;;4.32;1.80;;;;;;;19.51;43.76;100168.75;5108503;28;20035;-67
2022/07/12 02:48:15;;;;;;;4.13;1.60;;;;;;;19.45;43.70;100165.06;5104733;28;20081;-69
2022/07/12 02:50:41;;;;;;;5.03;1.85;;;;;;;19.53;43.45;100182.84;5106112;28;20040;-69
2022/07/12 02:53:07;;;;;;;4.30;1.80;;;;;;;19.69;43.20;100185.06;5105372;28;20103;-67
2022/07/12 02:55:33;;;;;;;5.13;1.73;;;;;;;19.62;43.20;100178.88;5107118;28;20056;-69
2022/07/12 02:57:59;;;;;;;4.40;1.90;;;;;;;19.50;43.13;100169.78;5105397;28;20237;-69
2022/07/12 03:00:25;;;;;;;5.80;1.90;;;;;;;19.30;43.81;100177.88;5106916;28;20031;-67
2022/07/12 03:02:50;;;;;;;5.55;1.70;;;;;;;18.93;44.53;100158.69;5106832;28;20059;-69
2022/07/12 03:05:16;;;;;;;2.55;1.67;;;;;;;19.01;44.92;100185.31;5107293;28;20072;-69
2022/07/12 03:07:41;;;;;;;3.13;1.70;;;;;;;18.85;45.52;100187.59;5104787;28;20345;-69
2022/07/12 03:10:07;;;;;;;2.58;1.83;;;;;;;18.87;45.32;100185.53;5104746;28;20039;-69
2022/07/12 03:12:33;;;;;;;5.05;1.60;;;;;;;18.77;45.57;100178.69;5108403;28;20028;-69
2022/07/12 03:14:58;;;;;;;6.82;2.42;;;;;;;18.62;46.21;100177.22;5104720;28;20032;-69
2022/07/12 03:17:24;;;;;;;7.82;1.98;;;;;;;18.64;46.10;100180.50;5106028;28;20209;-69
2022/07/12 03:19:49;;;;;;;5.15;2.00;;;;;;;18.67;45.97;100183.59;5105292;28;20032;-69
2022/07/12 03:22:14;;;;;;;4.00;1.98;;;;;;;18.52;46.63;100189.13;5106169;28;20085;-69
2022/07/12 03:24:40;;;;;;;5.80;1.90;;;;;;;18.57;46.41;100188.50;5102277;28;20252;-69
2022/07/12 03:27:06;;;;;;;3.08;1.80;;;;;;;18.67;46.15;100198.88;5106256;28;20337;-69
2022/07/12 03:29:31;;;;;;;4.90;2.00;;;;;;;18.64;46.10;100197.44;5111821;28;20027;-69
2022/07/12 03:31:57;;;;;;;9.18;2.10;;;;;;;18.61;46.35;100205.88;5106825;28;20028;-69
2022/07/12 03:34:22;;;;;;;4.25;1.77;;;;;;;18.86;46.03;100194.59;5105576;28;20027;-69
2022/07/12 03:36:48;;;;;;;5.05;2.10;;;;;;;18.89;45.74;100203.06;5104469;28;20058;-69
2022/07/12 03:39:13;;;;;;;4.63;2.13;;;;;;;18.78;45.84;100192.94;5106225;28;20216;-69
2022/07/12 03:41:39;;;;;;;3.17;1.88;;;;;;;18.70;46.42;100209.19;5107158;28;20674;-69
2022/07/12 03:44:05;;;;;;;3.35;1.85;;;;;;;18.71;46.22;100211.69;5104494;28;20248;-69
2022/07/12 03:46:32;;;;;;;6.28;2.00;;;;;;;18.94;45.61;100205.97;5107912;28;20211;-70
2022/07/12 03:48:58;;;;;;;5.82;1.92;;;;;;;18.79;45.88;100208.00;5103346;28;20030;-67
2022/07/12 03:51:24;;;;;;;2.83;1.90;;;;;;;18.73;45.72;100208.81;5108572;28;20323;-67
2022/07/12 03:53:49;;;;;;;9.00;2.40;;;;;;;18.86;45.17;100206.16;5103369;28;20028;-67
2022/07/12 03:57:13;;;;;;;3.78;2.03;;;;;;;18.86;45.38;100206.16;5106208;28;20031;-69
2022/07/12 03:59:00;;;;;;;5.38;2.22;;;;;;;18.92;45.52;100218.75;5104795;28;20063;-69
2022/07/12 04:01:26;;;;;;;6.07;2.22;;;;;;;18.84;45.43;100218.97;5107274;28;20350;-69
2022/07/12 04:03:51;;;;;;;4.55;2.05;;;;;;;19.14;44.72;100222.91;5107308;28;20042;-67
2022/07/12 04:06:17;;;;;;;9.00;1.92;;;;;;;18.95;44.84;100214.84;5102368;28;20232;-67
2022/07/12 04:08:42;;;;;;;5.88;2.10;;;;;;;19.10;44.59;100216.28;5106605;28;20036;-70
2022/07/12 04:11:08;;;;;;;4.47;1.90;;;;;;;19.19;44.51;100213.41;5105243;28;20071;-69
2022/07/12 04:13:33;;;;;;;8.55;2.50;;;;;;;19.11;44.46;100209.06;5103953;28;20031;-69
2022/07/12 04:15:59;;;;;;;5.80;2.30;;;;;;;19.27;44.30;100221.25;5107763;28;20360;-69
2022/07/12 04:18:24;;;;;;;5.05;1.90;;;;;;;19.35;44.39;100215.66;5103667;28;20039;-67
2022/07/12 04:20:50;;;;;;;6.03;2.13;;;;;;;19.50;43.96;100220.81;5102458;28;20048;-69
2022/07/12 04:23:15;;;;;;;3.17;1.92;;;;;;;19.50;43.78;100220.81;5105568;28;20020;-67
2022/07/12 04:25:41;;;;;;;3.45;2.05;;;;;;;19.63;43.76;100224.34;5102896;28;20333;-67
2022/07/12 04:28:06;;;;;;;5.18;2.20;;;;;;;19.87;42.49;100208.63;5102835;28;20028;-67
2022/07/12 04:30:32;;;;;;;7.57;2.13;;;;;;;20.16;41.89;100235.00;5105064;28;20032;-67
2022/07/12 04:32:57;;;;;;;5.97;2.00;;;;;;;20.14;42.15;100241.63;5104154;28;20066;-67
2022/07/12 04:35:23;;;;;;;5.63;2.13;;;;;;;20.36;41.55;100242.97;5104463;28;20043;-67
2022/07/12 04:37:48;;;;;;;4.15;2.08;;;;;;;20.23;41.64;100233.09;5105160;28;20317;-67
2022/07/12 04:40:13;;;;;;;5.95;2.15;;;;;;;20.25;41.82;100209.50;5103567;28;20027;-67
2022/07/12 04:42:39;;;;;;;5.18;1.90;;;;;;;20.64;41.69;100237.28;5100886;28;20252;-67
2022/07/12 04:45:05;;;;;;;5.75;1.80;;;;;;;20.86;40.85;100237.78;5102873;28;20032;-67
2022/07/12 04:47:31;;;;;;;7.38;1.92;;;;;;;20.66;41.10;100236.03;5103672;28;20075;-68
2022/07/12 04:49:56;;;;;;;3.90;1.60;;;;;;;20.93;40.83;100243.97;5104626;28;20039;-67
2022/07/12 04:52:21;;;;;;;6.07;1.90;;;;;;;21.13;40.26;100251.91;5105294;28;20036;-68
2022/07/12 04:54:47;;;;;;;6.35;2.63;;;;;;;21.49;39.64;100246.66;5102164;28;20043;-67
2022/07/12 04:57:12;;;;;;;7.70;2.33;;;;;;;21.65;39.92;100246.09;5103227;28;20016;-68
2022/07/12 04:59:38;;;;;;;7.78;2.35;;;;;;;21.88;39.30;100248.16;5103084;28;20047;-68
2022/07/12 05:02:04;;;;;;;4.38;1.92;;;;;;;22.25;38.50;100249.03;5105351;28;20130;-67
2022/07/12 05:04:33;;;;;;;6.15;1.70;;;;;;;22.42;37.63;100238.44;5101862;28;20028;-67
2022/07/12 05:06:59;;;;;;;5.35;1.90;;;;;;;22.32;37.73;100235.44;5103284;28;20228;-67
2022/07/12 05:09:24;;;;;;;4.32;1.70;;;;;;;22.13;37.47;100240.03;5106267;28;20040;-68
2022/07/12 05:11:50;;;;;;;6.10;1.60;;;;;;;21.97;37.97;100210.94;5102439;28;20028;-67
2022/07/12 05:14:16;;;;;;;3.90;2.00;;;;;;;22.25;37.55;100237.41;5102062;28;20027;-68
2022/07/12 05:16:41;;;;;;;3.85;1.50;;;;;;;22.30;37.68;100232.97;5103072;28;20076;-67
2022/07/12 05:19:07;;;;;;;4.07;1.40;;;;;;;22.44;37.31;100243.59;5101759;28;20023;-67
2022/07/12 05:21:34;;;;;;;4.72;2.20;;;;;;;22.10;38.33;100234.28;5103297;28;20085;-67
2022/07/12 05:24:00;;;;;;;4.45;1.80;;;;;;;22.57;37.45;100238.03;5101623;28;20926;-67
2022/07/12 05:26:25;;;;;;;8.73;1.75;;;;;;;23.01;37.30;100236.81;5104196;28;20028;-68
2022/07/12 05:28:51;;;;;;;8.00;2.58;;;;;;;23.00;36.81;100237.88;5105099;28;20023;-67
2022/07/12 05:31:16;;;;;;;8.40;2.08;;;;;;;23.30;36.80;100237.00;5103669;28;20027;-68
2022/07/12 05:33:41;;;;;;;3.28;1.33;;;;;;;23.56;35.49;100240.09;5101847;28;20023;-68
2022/07/12 05:36:07;;;;;;;7.65;1.45;;;;;;;23.90;35.21;100229.50;5099881;28;20031;-67
2022/07/12 05:38:32;;;;;;;3.17;1.33;;;;;;;23.80;34.39;100232.78;5104262;28;20043;-68
2022/07/12 05:40:58;;;;;;;4.78;1.30;;;;;;;23.81;34.58;100236.31;5102012;28;20035;-68
2022/07/12 05:43:23;;;;;;;7.82;1.73;;;;;;;23.94;34.27;100233.41;5102039;28;20310;-68
2022/07/12 05:45:49;;;;;;;6.93;1.77;;;;;;;23.82;34.33;100236.09;5104033;28;20329;-68
2022/07/12 05:48:15;;;;;;;7.18;1.40;;;;;;;24.11;33.63;100234.31;5103324;28;20124;-68
2022/07/12 05:50:40;;;;;;;4.03;1.45;;;;;;;24.35;33.84;100236.97;5105627;28;20039;-67
2022/07/12 05:53:24;;;;;;;2.47;1.10;;;;;;;24.52;33.48;100225.13;5101894;28;20051;-68
2022/07/12 05:55:51;;;;;;;6.72;2.00;;;;;;;24.55;33.20;100234.66;5105975;28;20027;-67
2022/07/12 05:58:18;;;;;;;9.05;2.15;;;;;;;24.66;32.64;100233.78;5101826;28;20031;-69
2022/07/12 06:00:44;;;;;;;9.95;1.85;;;;;;;24.84;32.38;100236.28;5100977;28;20086;-69
2022/07/12 06:03:10;;;;;;;5.68;1.80;;;;;;;25.13;32.43;100236.31;5101016;28;20103;-69
2022/07/12 06:05:35;;;;;;;4.32;1.75;;;;;;;25.13;32.64;100236.31;5101583;28;20216;-69
2022/07/12 06:08:01;;;;;;;3.15;1.27;;;;;;;25.06;32.40;100228.34;5100904;28;20020;-69
2022/07/12 06:10:27;;;;;;;4.18;1.65;;;;;;;24.93;32.32;100208.81;5104730;28;20078;-69
2022/07/12 06:12:52;;;;;;;6.15;1.70;;;;;;;25.39;31.85;100223.97;5107251;28;20032;-69
2022/07/12 06:15:18;;;;;;;14.27;1.40;;;;;;;25.44;31.45;100226.78;5100426;28;20039;-69
2022/07/12 06:17:43;;;;;;;8.00;1.40;;;;;;;25.46;31.86;100224.63;5104686;28;20040;-69
2022/07/12 06:20:10;;;;;;;6.20;1.63;;;;;;;25.11;32.02;100222.19;5101652;28;20226;-69
2022/07/12 06:22:35;;;;;;;6.35;1.40;;;;;;;25.28;31.83;100216.75;5104328;28;20031;-69
2022/07/12 06:25:00;;;;;;;16.98;2.13;;;;;;;25.28;31.82;100220.28;5104096;28;20344;-69
2022/07/12 06:27:26;;;;;;;5.35;1.63;;;;;;;25.60;31.84;100208.84;5105397;28;20493;-69
2022/07/12 06:29:52;;;;;;;3.72;1.38;;;;;;;25.60;31.47;100208.84;5105889;28;20051;-68
2022/07/12 06:32:18;;;;;;;2.83;1.65;;;;;;;25.78;31.15;100201.25;5107038;28;20333;-69
2022/07/12 06:34:44;;;;;;;6.30;1.90;;;;;;;26.19;31.32;100193.66;5107533;28;20039;-69
2022/07/12 06:37:09;;;;;;;9.30;2.05;;;;;;;26.09;30.55;100207.94;5106708;28;20024;-67
2022/07/12 06:39:36;;;;;;;7.13;1.38;;;;;;;26.32;30.87;100198.75;5105386;28;20260;-69
2022/07/12 06:42:03;;;;;;;8.02;2.13;;;;;;;26.09;30.57;100191.66;5105271;28;20387;-69
2022/07/12 06:44:32;;;;;;;7.57;1.77;;;;;;;26.40;30.48;100197.47;5113872;28;20056;-69
2022/07/12 06:46:59;;;;;;;5.00;1.20;;;;;;;26.52;30.73;100198.13;5105709;28;20028;-69
2022/07/12 06:49:25;;;;;;;4.82;1.55;;;;;;;26.57;29.86;100189.22;5106762;28;20032;-69
2022/07/12 06:51:51;;;;;;;6.55;1.60;;;;;;;26.63;30.15;100194.44;5109108;28;20035;-68
2022/07/12 06:54:17;;;;;;;2.42;1.20;;;;;;;26.47;30.28;100200.81;5108084;28;20031;-69
2022/07/12 06:56:42;;;;;;;7.60;1.45;;;;;;;26.04;30.90;100202.44;5106716;28;20321;-69
2022/07/12 06:59:10;;;;;;;5.35;1.45;;;;;;;26.45;30.49;100197.50;5107034;28;20337;-69
2022/07/12 07:01:37;;;;;;;5.40;1.30;;;;;;;26.79;30.23;100200.03;5103522;28;20241;-69
2022/07/12 07:04:03;;;;;;;6.47;1.42;;;;;;;26.64;30.11;100187.94;5105377;28;20230;-69
2022/07/12 07:06:28;;;;;;;4.63;1.27;;;;;;;26.53;30.00;100183.47;5107481;28;20028;-69
2022/07/12 07:08:53;;;;;;;4.70;1.58;;;;;;;26.70;30.65;100197.78;5105415;28;20032;-69
2022/07/12 07:11:19;;;;;;;6.55;1.15;;;;;;;26.74;29.80;100195.38;5106864;28;20024;-69
2022/07/12 07:13:45;;;;;;;6.82;2.05;;;;;;;26.89;29.84;100198.22;5106435;28;20034;-68
2022/07/12 07:16:10;;;;;;;5.68;1.40;;;;;;;26.95;29.49;100191.75;5106098;28;20329;-69
2022/07/12 07:18:35;;;;;;;3.75;1.80;;;;;;;26.98;30.15;100193.16;5108285;28;20456;-69
2022/07/12 07:21:01;;;;;;;5.15;1.45;;;;;;;27.09;29.50;100199.53;5104514;28;20347;-69
2022/07/12 07:23:26;;;;;;;6.28;2.05;;;;;;;27.60;29.46;100197.97;5107003;28;20043;-68
2022/07/12 07:25:52;;;;;;;5.60;1.40;;;;;;;27.75;28.07;100195.38;5103493;28;20093;-69
2022/07/12 07:28:17;;;;;;;6.38;1.73;;;;;;;27.58;27.63;100194.72;5105675;28;20032;-69
2022/07/12 07:30:55;;;;;;;2.60;1.85;;;;;;;27.87;28.49;100187.81;5104916;28;20052;-68
2022/07/12 07:33:25;;;;;;;5.57;1.23;;;;;;;27.58;27.64;100197.44;5104611;28;20544;-68
2022/07/12 07:35:51;;;;;;;14.30;1.58;;;;;;;27.62;28.86;100191.22;5107101;28;20307;-68
2022/07/12 07:38:19;;;;;;;4.38;1.35;;;;;;;27.70;28.74;100195.34;5104628;28;20032;-68
2022/07/12 07:40:45;;;;;;;5.82;1.63;;;;;;;27.75;28.96;100175.50;5104053;28;20336;-68
2022/07/12 07:43:11;;;;;;;4.53;1.60;;;;;;;27.76;28.16;100161.66;5103894;28;20312;-68
2022/07/12 07:45:36;;;;;;;5.20;1.42;;;;;;;27.88;28.36;100175.84;5105268;28;20032;-68
2022/07/12 07:48:03;;;;;;;4.07;1.48;;;;;;;28.10;26.98;100170.25;5105307;28;20259;-68
2022/07/12 07:50:29;;;;;;;3.47;1.33;;;;;;;28.44;27.27;100170.66;5103906;28;20035;-68
2022/07/12 07:52:55;;;;;;;3.75;1.10;;;;;;;28.32;27.82;100169.25;5102783;28;20032;-68
2022/07/12 07:55:21;;;;;;;7.28;1.63;;;;;;;28.26;27.31;100182.03;5104441;28;20055;-68
2022/07/12 07:57:47;;;;;;;1.88;1.15;;;;;;;28.31;25.45;100175.78;5108397;28;20028;-68
2022/07/12 08:00:14;;;;;;;5.40;1.50;;;;;;;27.96;25.29;100186.22;5103189;28;20039;-68
2022/07/12 08:02:41;;;;;;;9.27;1.48;;;;;;;27.96;24.88;100180.78;5104522;28;20090;-68
2022/07/12 08:05:07;;;;;;;9.27;2.40;;;;;;;27.95;24.23;100173.69;5104384;28;20027;-68
2022/07/12 08:07:32;;;;;;;3.65;2.15;;;;;;;27.84;23.64;100163.03;5104659;28;20042;-68
2022/07/12 08:09:58;;;;;;;8.55;4.35;;;;;;;27.77;24.85;100168.72;5105506;28;20054;-68
2022/07/12 08:12:23;;;;;;;5.57;5.05;;;;;;;28.03;24.42;100171.56;5106036;28;20267;-68
2022/07/12 08:14:49;;;;;;;5.03;1.73;;;;;;;28.08;25.02;100166.94;5103597;28;20221;-68
2022/07/12 08:17:14;;;;;;;2.47;0.90;;;;;;;28.71;24.46;100162.22;5106799;28;20328;-68
2022/07/12 08:19:39;;;;;;;8.00;1.83;;;;;;;28.60;24.92;100160.59;5103151;28;20036;-68
2022/07/12 08:22:05;;;;;;;5.75;1.63;;;;;;;28.33;23.87;100165.44;5105467;28;20453;-68
2022/07/12 08:24:30;;;;;;;8.55;1.38;;;;;;;28.41;24.90;100156.75;5102953;28;20043;-68
2022/07/12 08:26:56;;;;;;;7.97;1.40;;;;;;;28.60;24.73;100164.13;5100926;28;20016;-68
2022/07/12 08:29:21;;;;;;;4.65;2.40;;;;;;;28.47;23.38;100156.47;5104541;28;20077;-68
2022/07/12 08:31:47;;;;;;;2.88;1.45;;;;;;;28.65;24.16;100157.88;5105644;28;20084;-68
2022/07/12 08:34:12;;;;;;;5.13;2.13;;;;;;;28.47;24.03;100144.78;5103545;28;20034;-68
2022/07/12 08:36:38;;;;;;;4.00;1.63;;;;;;;28.80;24.09;100127.91;5105445;28;20337;-68
2022/07/12 08:39:03;;;;;;;11.95;1.30;;;;;;;28.84;23.88;100150.00;5103957;28;20032;-68
2022/07/12 08:41:29;;;;;;;8.45;1.30;;;;;;;29.22;23.89;100146.72;5106310;28;20325;-68
2022/07/12 08:43:55;;;;;;;9.13;1.17;;;;;;;29.19;23.53;100147.28;5103917;28;20020;-68
2022/07/12 08:46:20;;;;;;;3.17;2.17;;;;;;;29.00;22.94;100145.38;5103429;28;20036;-68
2022/07/12 08:48:46;;;;;;;4.63;1.70;;;;;;;29.07;24.02;100135.00;5103106;28;20027;-68
2022/07/12 08:51:13;;;;;;;5.70;1.50;;;;;;;29.54;23.81;100134.69;5104628;28;20047;-68
2022/07/12 08:53:40;;;;;;;4.38;1.85;;;;;;;29.45;23.69;100142.63;5104172;28;20085;-68
2022/07/12 08:56:06;;;;;;;4.93;1.33;;;;;;;29.57;24.11;100130.59;5118580;27;20027;-68
2022/07/12 08:58:32;;;;;;;5.82;1.02;;;;;;;29.82;23.29;100131.31;5102874;28;20272;-68
2022/07/12 09:00:57;;;;;;;5.13;3.67;;;;;;;30.37;22.86;100134.88;5104505;28;20055;-69
2022/07/12 09:03:23;;;;;;;6.70;1.30;;;;;;;30.22;22.94;100128.69;5102513;28;20036;-68
2022/07/12 09:05:53;;;;;;;4.95;1.20;;;;;;;30.07;21.48;100129.56;5103826;28;20059;-68
2022/07/12 09:08:31;;;;;;;5.65;1.00;;;;;;;30.03;22.14;100120.31;5103281;28;20038;-67
2022/07/12 09:11:03;;;;;;;4.35;0.80;;;;;;;30.16;21.96;100123.22;5103541;28;20024;-67
2022/07/12 09:13:50;;;;;;;4.37;0.90;;;;;;;30.25;22.25;100118.03;5105470;28;20396;-67
2022/07/12 09:16:17;;;;;;;2.92;1.20;;;;;;;30.00;22.09;100118.94;5104239;28;20699;-67
2022/07/12 09:18:44;;;;;;;4.82;0.90;;;;;;;30.17;21.89;100107.66;5102310;28;20031;-67
2022/07/12 09:21:09;;;;;;;4.82;1.00;;;;;;;30.48;21.68;100108.31;5105929;28;20040;-67
2022/07/12 09:23:35;;;;;;;5.85;1.15;;;;;;;30.57;21.42;100100.31;5104649;28;20065;-68
2022/07/12 09:26:07;;;;;;;3.42;0.98;;;;;;;30.61;21.93;100104.13;5104296;28;20059;-67
2022/07/12 09:28:33;;;;;;;4.43;1.10;;;;;;;30.80;21.32;100114.09;5105888;28;20121;-68
2022/07/12 09:30:59;;;;;;;3.78;1.88;;;;;;;30.53;21.35;100088.31;5102839;28;20321;-67
2022/07/12 09:36:15;;;;;;;;;;;;;;;30.58;21.72;100101.94;5102248;28;20386;-68
2022/07/12 09:38:49;;;;;;;2.13;0.80;;;;;;;30.22;22.03;100096.75;5102675;28;19924;-67
2022/07/12 09:41:17;;;;;;;8.73;1.00;;;;;;;30.20;21.84;100098.94;5105281;28;20145;-67
2022/07/12 09:43:44;;;;;;;9.15;1.35;;;;;;;30.07;22.59;100094.06;5103237;28;20027;-67
2022/07/12 09:46:09;;;;;;;6.05;1.10;;;;;;;29.94;22.90;100091.94;5101523;28;20056;-67
2022/07/12 09:48:36;;;;;;;6.30;1.05;;;;;;;29.81;22.01;100094.19;5106063;28;20020;-67
2022/07/12 09:51:03;;;;;;;9.45;1.00;;;;;;;29.92;22.25;100092.22;5101566;28;20043;-67
2022/07/12 09:53:31;;;;;;;3.30;1.00;;;;;;;29.76;22.84;100090.66;5101512;28;20376;-67
2022/07/12 09:55:58;;;;;;;5.03;1.17;;;;;;;29.76;22.04;100088.75;5103677;28;20047;-67
2022/07/12 09:58:30;;;;;;;2.63;1.00;;;;;;;29.79;22.11;100085.47;5107456;28;20034;-67
2022/07/12 10:01:02;;;;;;;7.15;1.23;;;;;;;29.64;22.85;100082.81;5106189;28;20110;-67
2022/07/12 10:03:31;;;;;;;10.18;1.17;;;;;;;29.50;23.36;100081.75;5105939;28;20035;-67
2022/07/12 10:05:59;;;;;;;1.80;0.80;;;;;;;29.62;22.87;100085.00;5104937;28;20095;-67
2022/07/12 10:08:24;;;;;;;7.82;1.17;;;;;;;29.58;23.70;100088.56;5104911;28;20291;-67
2022/07/12 10:10:50;;;;;;;5.80;1.08;;;;;;;29.36;22.77;100070.59;5105277;28;20024;-67
2022/07/12 10:13:17;;;;;;;6.43;1.05;;;;;;;29.33;22.83;100062.16;5109629;28;20090;-67
2022/07/12 10:15:45;;;;;;;2.70;0.90;;;;;;;29.36;22.67;100069.78;5122597;28;20039;-67
2022/07/12 10:18:21;;;;;;;5.55;1.27;;;;;;;29.33;22.59;100082.06;5118323;28;20036;-68
2022/07/12 10:20:48;;;;;;;3.42;1.50;;;;;;;29.30;22.29;100054.53;5117230;28;20032;-67
2022/07/12 10:23:20;;;;;;;6.07;0.93;;;;;;;29.20;22.77;100064.38;5123189;28;20213;-67
2022/07/12 10:25:48;;;;;;;1.55;0.88;;;;;;;29.12;23.02;100072.28;5124632;28;20436;-67
2022/07/12 10:28:14;;;;;;;2.63;0.80;;;;;;;29.20;22.81;100056.19;5124591;28;20050;-68
2022/07/12 10:30:47;;;;;;;3.78;1.10;;;;;;;29.31;22.46;100047.97;5123700;28;20027;-67
2022/07/12 10:33:24;;;;;;;;;;;;;;;29.42;22.34;100041.38;5120268;28;20028;-67
2022/07/12 10:36:05;;;;;;;5.88;1.00;;;;;;;29.27;23.37;100041.44;5118045;28;19915;-67
2022/07/12 10:38:31;;;;;;;6.00;1.10;;;;;;;28.96;22.45;100059.78;5124422;28;20035;-68
2022/07/12 10:40:57;;;;;;;5.38;0.93;;;;;;;28.83;23.79;100047.50;5124047;28;20059;-67
2022/07/12 10:46:23;;;;;;;5.10;1.50;;;;;;;29.07;23.52;100039.56;5122318;28;20085;-67
2022/07/12 10:48:49;;;;;;;2.30;1.00;;;;;;;29.10;23.49;100041.75;5124069;28;20222;-67
2022/07/12 10:51:19;;;;;;;5.75;1.42;;;;;;;29.10;22.91;100045.28;5118252;28;20039;-67
2022/07/12 10:53:48;;;;;;;2.97;0.98;;;;;;;29.20;22.37;100039.84;5124246;27;20023;-67
2022/07/12 10:56:15;;;;;;;6.55;1.08;;;;;;;29.09;22.72;100026.47;5118246;28;20066;-67
2022/07/12 10:58:44;;;;;;;6.70;1.20;;;;;;;29.03;22.70;100033.84;5123710;28;20366;-67
2022/07/12 11:01:11;;;;;;;6.78;1.20;;;;;;;28.99;23.96;100031.97;5115777;28;20028;-67
2022/07/12 11:03:42;;;;;;;4.32;1.13;;;;;;;28.90;22.86;100034.44;5122395;28;20035;-68
2022/07/12 11:06:10;;;;;;;7.55;1.55;;;;;;;28.71;24.04;100036.06;5117344;28;20341;-67
2022/07/12 11:08:51;;;;;;;6.15;1.42;;;;;;;29.05;24.24;100028.94;5123776;28;20043;-67
2022/07/12 11:11:17;;;;;;;6.18;1.10;;;;;;;29.08;24.20;100028.38;5119271;28;20055;-67
2022/07/12 11:13:43;;;;;;;8.75;1.70;;;;;;;28.84;23.16;100016.47;5122242;28;20094;-67
2022/07/12 11:16:08;;;;;;;4.68;1.30;;;;;;;29.00;23.99;100028.13;5118553;28;20042;-67
2022/07/12 11:18:35;;;;;;;3.22;1.00;;;;;;;29.25;24.17;100025.38;5123944;28;20042;-67
2022/07/12 11:21:02;;;;;;;4.38;1.25;;;;;;;29.28;24.04;100016.63;5112315;28;20036;-67
2022/07/12 11:23:29;;;;;;;3.42;1.40;;;;;;;29.39;24.58;100029.13;5123850;28;20035;-68
2022/07/12 11:25:56;;;;;;;3.63;1.15;;;;;;;29.33;23.37;100024.78;5122060;28;20221;-67
2022/07/12 11:28:23;;;;;;;2.15;1.00;;;;;;;29.15;23.26;100012.59;5123255;28;20032;-67
2022/07/12 11:30:52;;;;;;;9.00;1.35;;;;;;;29.10;24.04;100015.28;5121165;28;20024;-68